This is the latest recevied weather packets stored in our database for station/object EA1HEH-13. If no packets are shown the sender has not sent any weather packets the latest 10 day(s).
| Time | Temp. | Humidity | Pressure | Rain* | Wind** | Luminosity | Snow |
|---|---|---|---|---|---|---|---|
| 1778163946 | 19.44° C | 27% | 929.6 hPa | - | - | - | - |
| 1778163346 | 19.44° C | 27% | 929.6 hPa | - | - | - | - |
| 1778162746 | 18.89° C | 27% | 929.8 hPa | - | - | - | - |
| 1778162146 | 18.33° C | 29% | 929.8 hPa | - | - | - | - |
| 1778161546 | 17.78° C | 29% | 930 hPa | - | - | - | - |
| 1778160946 | 17.22° C | 30% | 930.1 hPa | - | - | - | - |
| 1778160346 | 17.22° C | 31% | 930.1 hPa | - | - | - | - |
| 1778159746 | 17.22° C | 30% | 930.2 hPa | - | - | - | - |
| 1778159146 | 18.89° C | 25% | 930.1 hPa | - | - | - | - |
| 1778158546 | 19.44° C | 22% | 930 hPa | - | - | - | - |
| 1778157946 | 20° C | 23% | 929.5 hPa | - | - | - | - |
| 1778157346 | 20° C | 23% | 929.3 hPa | - | - | - | - |
| 1778156746 | 20° C | 23% | 929.4 hPa | - | - | - | - |
| 1778156146 | 20° C | 24% | 929.4 hPa | - | - | - | - |
| 1778155546 | 20° C | 24% | 929.5 hPa | - | - | - | - |
| 1778154946 | 19.44° C | 24% | 929.6 hPa | - | - | - | - |
| 1778154346 | 19.44° C | 25% | 929.8 hPa | - | - | - | - |
| 1778153746 | 18.89° C | 25% | 929.9 hPa | - | - | - | - |
| 1778153146 | 18.89° C | 24% | 930 hPa | - | - | - | - |
| 1778152546 | 18.89° C | 25% | 930 hPa | - | - | - | - |
| 1778151946 | 18.89° C | 25% | 930.1 hPa | - | - | - | - |
| 1778151346 | 18.89° C | 25% | 930.2 hPa | - | - | - | - |
| 1778150746 | 18.33° C | 25% | 930.4 hPa | - | - | - | - |
| 1778150146 | 18.33° C | 26% | 930.5 hPa | - | - | - | - |
| 1778149546 | 18.33° C | 26% | 930.6 hPa | - | - | - | - |
* Rain since midnight (hover to see other rain measurements)
** Current wind speed in m/s (hover to see current wind gust speed)